Lamont, California
Current Conditions -  °F | °C
As of 12:54 PM on Monday 24 Nov 2014 (Local Time) from KBFL Reporting Station
Clear Clear  
Wind Chill: 61°   Ceiling: Unl
Heat Index: 61°   Visibility: 8mi
Dew Point: 43°   Wind: 8mph
Humidity: 52%   Direction: 320°NW
Pressure: 30.36"   Gusts: NA
Location:  35.27°N, 118.91°W
Report Text: KBFL 242054Z 32007KT 8SM CLR 16/06 A3036 RMK AO2 SLP278 T01610061 56019
Loading
Personal Weather Stations






























Interactive Weather Map New forecast layout! Learn more

10-Day Weather Forecast

Advertisements
Track Severe Weather on mobile